createdAt,value
2017-08-10T00:00:52.711Z,99.60
2017-08-10T00:03:20.982Z,99.70
2017-08-10T00:05:48.506Z,99.60
2017-08-10T00:08:16.016Z,99.10
2017-08-10T00:10:43.536Z,98.80
2017-08-10T00:13:11.067Z,98.90
2017-08-10T00:15:38.582Z,98.90
2017-08-10T00:18:06.082Z,99.30
2017-08-10T00:20:33.607Z,99.20
2017-08-10T00:23:01.167Z,99.30
2017-08-10T00:25:28.675Z,99.00
2017-08-10T00:27:56.194Z,98.90
2017-08-10T00:30:23.947Z,98.80
2017-08-10T00:32:51.470Z,99.30
2017-08-10T00:35:18.974Z,99.30
2017-08-10T00:37:46.494Z,99.40
2017-08-10T00:40:14.767Z,99.40
2017-08-10T00:42:43.066Z,99.20
2017-08-10T00:45:10.579Z,99.20
2017-08-10T00:47:38.079Z,99.50
2017-08-10T00:50:05.647Z,99.40
2017-08-10T00:52:33.203Z,99.50
2017-08-10T00:55:00.728Z,99.90
2017-08-10T00:57:28.326Z,99.50
2017-08-10T00:59:55.858Z,99.60
2017-08-10T01:02:24.140Z,99.70
2017-08-10T01:04:52.428Z,99.30
2017-08-10T01:07:20.459Z,99.30
2017-08-10T01:09:47.986Z,98.90
2017-08-10T01:12:15.499Z,99.40
2017-08-10T01:14:43.904Z,99.50
2017-08-10T01:17:11.415Z,99.00
2017-08-10T01:19:38.927Z,99.30
2017-08-10T01:22:06.447Z,99.00
2017-08-10T01:24:34.729Z,98.70
2017-08-10T01:27:03.131Z,98.80
2017-08-10T01:29:30.635Z,98.80
2017-08-10T01:31:58.163Z,98.80
2017-08-10T01:34:25.671Z,99.10
2017-08-10T01:36:53.978Z,99.20
2017-08-10T01:39:22.174Z,99.10
2017-08-10T01:41:49.700Z,99.10
2017-08-10T01:44:17.215Z,99.10
2017-08-10T01:46:44.722Z,99.50
2017-08-10T01:49:12.287Z,99.40
2017-08-10T01:51:39.795Z,99.40
2017-08-10T01:54:07.315Z,99.40
2017-08-10T01:56:34.827Z,99.60
2017-08-10T01:59:03.138Z,99.90
2017-08-10T02:01:30.647Z,99.60
2017-08-10T02:03:58.178Z,99.40
2017-08-10T02:06:25.683Z,99.40
2017-08-10T02:08:53.956Z,99.50
2017-08-10T02:11:22.260Z,99.60
2017-08-10T02:13:49.821Z,99.60
2017-08-10T02:16:17.377Z,99.40
2017-08-10T02:18:44.882Z,99.80
2017-08-10T02:21:12.495Z,99.90
2017-08-10T02:23:40.008Z,99.30
2017-08-10T02:26:07.523Z,99.10
2017-08-10T02:28:35.075Z,99.10
2017-08-10T02:31:02.632Z,99.20
2017-08-10T02:33:30.188Z,99.10
2017-08-10T02:35:57.694Z,99.20
2017-08-10T02:38:25.316Z,99.20
2017-08-10T02:40:52.827Z,98.90
2017-08-10T02:43:20.355Z,98.70
2017-08-10T02:45:47.854Z,98.80
2017-08-10T02:48:16.131Z,98.30
2017-08-10T02:50:44.419Z,99.00
2017-08-10T02:53:12.709Z,98.40
2017-08-10T02:55:40.267Z,98.40
2017-08-10T02:58:07.781Z,98.50
2017-08-10T03:00:35.307Z,98.50
2017-08-10T03:03:02.815Z,99.20
2017-08-10T03:05:31.102Z,99.70
2017-08-10T03:07:59.394Z,99.10
2017-08-10T03:10:26.955Z,99.00
2017-08-10T03:12:54.515Z,99.10
2017-08-10T03:15:22.056Z,98.80
2017-08-10T03:17:50.331Z,98.50
2017-08-10T03:20:18.632Z,98.60
2017-08-10T03:22:46.161Z,98.60
2017-08-10T03:25:14.432Z,98.30
2017-08-10T03:27:42.739Z,97.80
2017-08-10T03:30:10.252Z,97.70
2017-08-10T03:32:37.775Z,97.20
2017-08-10T03:35:05.287Z,96.90
2017-08-10T03:37:33.574Z,97.00
2017-08-10T03:40:01.087Z,97.00
2017-08-10T03:42:28.610Z,97.60
2017-08-10T03:44:56.115Z,97.60
2017-08-10T03:47:23.655Z,97.90
2017-08-10T03:49:51.162Z,97.90
2017-08-10T03:52:18.671Z,98.20
2017-08-10T03:54:46.196Z,98.40
2017-08-10T03:57:13.707Z,98.60
2017-08-10T03:59:41.307Z,99.00
2017-08-10T04:02:08.810Z,98.60
2017-08-10T04:04:36.335Z,98.20
2017-08-10T04:07:03.878Z,98.00
2017-08-10T04:09:31.443Z,98.10
2017-08-10T04:11:58.950Z,98.20
2017-08-10T04:14:26.559Z,98.20
2017-08-10T04:16:54.863Z,98.30
2017-08-10T04:19:22.403Z,98.10
2017-08-10T04:21:49.910Z,98.00
2017-08-10T04:24:17.428Z,98.10
2017-08-10T04:26:44.967Z,98.20
2017-08-10T04:29:12.479Z,98.30
2017-08-10T04:31:40.004Z,98.60
2017-08-10T04:34:07.511Z,98.50
2017-08-10T04:36:35.823Z,98.30
2017-08-10T04:39:03.335Z,98.20
2017-08-10T04:41:30.871Z,98.50
2017-08-10T04:43:58.405Z,98.60
2017-08-10T04:46:26.567Z,98.70
2017-08-10T04:48:54.074Z,98.60
2017-08-10T04:51:21.599Z,98.70
2017-08-10T04:53:49.107Z,98.30
2017-08-10T04:56:17.515Z,98.60
2017-08-10T04:58:45.031Z,98.60
2017-08-10T05:01:12.534Z,98.70
2017-08-10T05:03:40.091Z,98.80
2017-08-10T05:06:08.483Z,99.00
2017-08-10T05:08:36.032Z,99.50
2017-08-10T05:11:03.662Z,99.40
2017-08-10T05:13:31.966Z,97.90
2017-08-10T05:15:59.539Z,98.20
2017-08-10T05:18:27.058Z,98.10
2017-08-10T05:20:55.373Z,98.10
2017-08-10T05:23:22.907Z,98.00
2017-08-10T05:25:50.785Z,97.90
2017-08-10T05:28:18.407Z,97.40
2017-08-10T05:30:45.928Z,97.90
2017-08-10T05:33:13.748Z,98.10
2017-08-10T05:35:42.146Z,98.60
2017-08-10T05:38:09.655Z,98.60
2017-08-10T05:40:37.267Z,99.00
2017-08-10T05:43:04.774Z,98.80
2017-08-10T05:45:32.303Z,99.20
2017-08-10T05:47:59.815Z,98.70
2017-08-10T05:50:28.118Z,98.50
2017-08-10T05:52:56.351Z,98.40
2017-08-10T05:55:23.859Z,98.40
2017-08-10T05:57:51.383Z,98.60
2017-08-10T06:00:19.664Z,98.90
2017-08-10T06:02:48.019Z,99.20
2017-08-10T06:05:15.527Z,99.20
2017-08-10T06:07:43.050Z,99.40
2017-08-10T06:10:11.355Z,99.90
2017-08-10T06:12:39.219Z,99.90
2017-08-10T06:15:06.989Z,99.80
2017-08-10T06:17:34.552Z,99.90
2017-08-10T06:20:02.070Z,99.80
2017-08-10T06:22:30.376Z,99.30
2017-08-10T06:24:57.883Z,99.20
2017-08-10T06:27:25.391Z,99.70
2017-08-10T06:29:52.927Z,99.10
2017-08-10T06:32:21.202Z,99.40
2017-08-10T06:34:49.490Z,99.30
2017-08-10T06:37:17.768Z,99.40
2017-08-10T06:39:45.300Z,99.40
2017-08-10T06:42:13.619Z,99.50
2017-08-10T06:44:41.178Z,99.20
2017-08-10T06:47:08.691Z,99.50
2017-08-10T06:49:36.215Z,99.10
2017-08-10T06:52:03.934Z,98.80
2017-08-10T06:54:32.226Z,98.70
2017-08-10T06:56:59.743Z,98.70
2017-08-10T06:59:27.287Z,99.10
2017-08-10T07:01:54.793Z,99.00
2017-08-10T07:04:22.299Z,99.10
2017-08-10T07:06:49.815Z,99.10
2017-08-10T07:09:17.379Z,99.60
2017-08-10T07:11:44.940Z,99.60
2017-08-10T07:14:12.495Z,99.70
2017-08-10T07:16:40.055Z,99.10
2017-08-10T07:19:07.566Z,99.00
2017-08-10T07:21:35.090Z,99.70
2017-08-10T07:24:02.632Z,99.90
2017-08-10T07:26:30.156Z,99.60
2017-08-10T07:28:58.466Z,98.90
2017-08-10T07:31:26.000Z,99.20
2017-08-10T07:33:54.274Z,99.50
2017-08-10T07:36:23.347Z,99.60
2017-08-10T07:38:50.850Z,99.60
2017-08-10T07:41:18.374Z,99.40
2017-08-10T07:43:45.879Z,98.70
2017-08-10T07:46:13.386Z,99.10
2017-08-10T07:48:40.913Z,99.40
2017-08-10T07:51:08.410Z,98.50
2017-08-10T07:53:37.060Z,98.80
2017-08-10T07:56:04.562Z,98.70
2017-08-10T07:58:32.864Z,99.90
2017-08-10T08:01:00.371Z,99.90
2017-08-10T08:03:27.883Z,99.90
2017-08-10T08:05:55.387Z,99.90
2017-08-10T08:08:22.995Z,99.80
2017-08-10T08:10:50.503Z,99.90
2017-08-10T08:13:18.020Z,99.90
2017-08-10T08:15:46.239Z,99.90
2017-08-10T08:18:13.762Z,99.00
2017-08-10T08:20:41.302Z,98.80
2017-08-10T08:23:08.803Z,99.00
2017-08-10T08:25:36.315Z,98.40
2017-08-10T08:28:03.816Z,98.50
2017-08-10T08:30:31.339Z,98.30
2017-08-10T08:32:58.891Z,98.00
2017-08-10T08:35:26.423Z,97.90
2017-08-10T08:37:54.694Z,97.90
2017-08-10T08:40:22.982Z,98.80
2017-08-10T08:42:51.254Z,98.00
2017-08-10T08:45:19.543Z,98.00
2017-08-10T08:47:47.815Z,97.90
2017-08-10T08:50:16.376Z,98.00
2017-08-10T08:52:44.686Z,98.30
2017-08-10T08:55:12.209Z,98.20
2017-08-10T08:57:39.715Z,98.80
2017-08-10T09:00:07.283Z,98.10
2017-08-10T09:02:34.803Z,98.70
2017-08-10T09:05:03.075Z,98.20
2017-08-10T09:07:31.360Z,98.60
2017-08-10T09:09:58.871Z,98.60
2017-08-10T09:12:26.391Z,98.30
2017-08-10T09:14:53.891Z,98.80
2017-08-10T09:17:21.503Z,98.50
2017-08-10T09:19:49.008Z,98.40
2017-08-10T09:22:16.532Z,98.40
2017-08-10T09:24:44.116Z,97.90
2017-08-10T09:27:11.638Z,98.30
2017-08-10T09:29:39.144Z,98.80
2017-08-10T09:32:06.644Z,98.80
2017-08-10T09:34:34.167Z,99.20
2017-08-10T09:37:01.667Z,99.50
2017-08-10T09:39:29.191Z,99.60
2017-08-10T09:41:56.690Z,99.80
2017-08-10T09:44:24.216Z,99.80
2017-08-10T09:46:52.482Z,99.80
2017-08-10T09:49:19.998Z,99.80
2017-08-10T09:51:47.538Z,99.40
2017-08-10T09:54:15.051Z,99.90
2017-08-10T09:56:42.550Z,99.70
2017-08-10T09:59:10.091Z,99.80
2017-08-10T10:01:38.359Z,99.30
2017-08-10T10:04:06.634Z,99.10
2017-08-10T10:06:34.926Z,99.50
2017-08-10T10:09:02.503Z,99.40
2017-08-10T10:11:30.050Z,99.00
2017-08-10T10:13:57.555Z,99.10
2017-08-10T10:16:25.070Z,99.10
2017-08-10T10:18:52.626Z,99.30
2017-08-10T10:21:20.151Z,98.60
2017-08-10T10:23:47.653Z,98.80
2017-08-10T10:26:15.203Z,99.10
2017-08-10T10:28:42.715Z,99.30
2017-08-10T10:31:10.230Z,99.30
2017-08-10T10:33:37.726Z,99.60
2017-08-10T10:36:05.227Z,99.60
2017-08-10T10:38:32.742Z,99.40
2017-08-10T10:41:00.247Z,99.20
2017-08-10T10:43:27.767Z,99.00
2017-08-10T10:45:55.268Z,99.40
2017-08-10T10:48:22.823Z,98.50
2017-08-10T10:50:50.323Z,98.70
2017-08-10T10:53:17.844Z,98.50
2017-08-10T10:55:45.343Z,98.90
2017-08-10T10:58:13.260Z,99.10
2017-08-10T11:00:41.419Z,98.70
2017-08-10T11:03:09.706Z,99.40
2017-08-10T11:05:37.271Z,99.40
2017-08-10T11:08:04.799Z,98.70
2017-08-10T11:10:33.067Z,98.70
2017-08-10T11:13:00.562Z,99.10
2017-08-10T11:15:28.075Z,99.20
2017-08-10T11:17:55.592Z,99.00
2017-08-10T11:20:23.115Z,98.70
2017-08-10T11:22:51.394Z,98.50
2017-08-10T11:25:19.696Z,98.80
2017-08-10T11:27:47.199Z,98.80
2017-08-10T11:30:14.719Z,99.30
2017-08-10T11:32:42.262Z,99.40
2017-08-10T11:35:09.790Z,99.10
2017-08-10T11:37:37.384Z,99.10
2017-08-10T11:40:05.096Z,98.90
2017-08-10T11:42:32.606Z,99.10
2017-08-10T11:45:00.139Z,99.30
2017-08-10T11:47:29.058Z,99.00
2017-08-10T11:49:56.564Z,99.00
2017-08-10T11:52:24.088Z,98.70
2017-08-10T11:54:52.415Z,98.50
2017-08-10T11:57:20.698Z,98.70
2017-08-10T11:59:48.994Z,97.40
2017-08-10T12:02:16.519Z,97.40
2017-08-10T12:04:44.024Z,98.20
2017-08-10T12:07:11.575Z,97.50
2017-08-10T12:09:39.130Z,97.70
2017-08-10T12:12:06.646Z,98.00
2017-08-10T12:14:34.151Z,98.10
2017-08-10T12:17:01.668Z,98.50
2017-08-10T12:19:29.172Z,98.50
2017-08-10T12:21:56.800Z,98.60
2017-08-10T12:24:25.094Z,98.80
2017-08-10T12:26:52.658Z,98.80
2017-08-10T12:29:20.180Z,99.00
2017-08-10T12:31:47.776Z,99.00
2017-08-10T12:34:15.339Z,98.80
2017-08-10T12:36:43.355Z,98.80
2017-08-10T12:39:10.879Z,98.60
2017-08-10T12:41:38.391Z,98.30
2017-08-10T12:44:07.326Z,98.00
2017-08-10T12:46:35.088Z,97.90
2017-08-10T12:49:03.016Z,97.60
2017-08-10T12:51:31.299Z,97.40
2017-08-10T12:54:00.263Z,97.00
2017-08-10T12:56:28.296Z,97.40
2017-08-10T12:58:56.293Z,97.30
2017-08-10T13:01:23.819Z,96.70
2017-08-10T13:03:52.042Z,96.90
2017-08-10T13:06:19.568Z,96.20
2017-08-10T13:08:47.104Z,96.30
2017-08-10T13:11:14.619Z,96.50
2017-08-10T13:13:42.215Z,96.90
2017-08-10T13:16:09.779Z,96.90
2017-08-10T13:18:37.279Z,97.30
2017-08-10T13:21:04.783Z,97.10
2017-08-10T13:23:32.659Z,97.00
2017-08-10T13:26:00.215Z,96.80
2017-08-10T13:28:27.775Z,97.20
2017-08-10T13:30:55.283Z,96.80
2017-08-10T13:33:22.804Z,96.50
2017-08-10T13:35:50.308Z,96.30
2017-08-10T13:38:17.831Z,96.70
2017-08-10T13:40:45.342Z,96.40
2017-08-10T13:43:13.626Z,96.40
2017-08-10T13:45:41.899Z,96.60
2017-08-10T13:48:10.208Z,96.10
2017-08-10T13:50:37.706Z,96.10
2017-08-10T13:53:05.203Z,96.00
2017-08-10T13:55:32.770Z,96.60
2017-08-10T13:58:00.276Z,96.00
2017-08-10T14:00:27.791Z,96.20
2017-08-10T14:02:55.294Z,96.10
2017-08-10T14:05:22.811Z,96.10
2017-08-10T14:07:50.626Z,96.70
2017-08-10T14:10:18.147Z,96.40
2017-08-10T14:12:45.651Z,95.70
2017-08-10T14:15:13.955Z,96.30
2017-08-10T14:17:41.514Z,96.30
2017-08-10T14:20:09.050Z,95.90
2017-08-10T14:22:37.318Z,95.60
2017-08-10T14:25:04.819Z,95.60
2017-08-10T14:27:32.338Z,95.90
2017-08-10T14:30:00.607Z,96.40
2017-08-10T14:32:28.127Z,96.20
2017-08-10T14:34:56.299Z,96.10
2017-08-10T14:37:23.819Z,96.40
2017-08-10T14:39:52.087Z,96.50
2017-08-10T14:42:20.367Z,96.40
2017-08-10T14:44:48.659Z,96.00
2017-08-10T14:47:16.179Z,96.00
2017-08-10T14:49:43.708Z,96.20
2017-08-10T14:52:11.231Z,95.70
2017-08-10T14:54:38.791Z,95.70
2017-08-10T14:57:06.354Z,96.00
2017-08-10T14:59:33.876Z,96.00
2017-08-10T15:02:01.999Z,95.70
2017-08-10T15:04:29.539Z,96.80
2017-08-10T15:06:57.103Z,95.80
2017-08-10T15:09:24.618Z,95.30
2017-08-10T15:11:52.919Z,96.00
2017-08-10T15:14:21.306Z,94.90
2017-08-10T15:16:48.808Z,94.80
2017-08-10T15:19:16.327Z,95.60
2017-08-10T15:21:43.834Z,94.40
2017-08-10T15:24:11.368Z,94.80
2017-08-10T15:26:38.875Z,93.30
2017-08-10T15:29:07.263Z,93.00
2017-08-10T15:31:35.543Z,90.00
2017-08-10T15:34:03.812Z,91.50
2017-08-10T15:36:32.110Z,89.60
2017-08-10T15:38:59.611Z,89.50
2017-08-10T15:41:27.128Z,84.30
2017-08-10T15:43:54.691Z,82.30
2017-08-10T15:46:22.211Z,81.80
2017-08-10T15:48:49.715Z,83.10
2017-08-10T15:51:17.235Z,84.10
2017-08-10T15:53:45.504Z,83.70
2017-08-10T15:56:13.812Z,86.10
2017-08-10T15:58:41.319Z,86.10
2017-08-10T16:01:08.847Z,88.90
2017-08-10T16:03:36.342Z,89.00
2017-08-10T16:06:03.847Z,91.10
2017-08-10T16:08:31.370Z,91.30
2017-08-10T16:10:59.634Z,91.80
2017-08-10T16:13:27.156Z,91.80
2017-08-10T16:15:54.659Z,92.30
2017-08-10T16:18:22.946Z,92.90
2017-08-10T16:20:51.510Z,93.20
2017-08-10T16:23:19.034Z,93.20
2017-08-10T16:25:46.542Z,93.10
2017-08-10T16:28:14.083Z,93.30
2017-08-10T16:30:41.697Z,93.80
2017-08-10T16:33:09.383Z,93.90
2017-08-10T16:35:36.903Z,92.60
2017-08-10T16:38:04.462Z,93.20
2017-08-10T16:40:31.983Z,93.30
2017-08-10T16:42:59.492Z,93.20
2017-08-10T16:45:27.012Z,93.80
2017-08-10T16:47:55.278Z,93.70
2017-08-10T16:50:22.871Z,93.70
2017-08-10T16:52:50.432Z,94.40
2017-08-10T16:55:17.987Z,93.40
2017-08-10T16:57:45.495Z,93.30
2017-08-10T17:00:13.212Z,94.20
2017-08-10T17:02:40.767Z,94.00
2017-08-10T17:05:08.287Z,94.40
2017-08-10T17:07:35.887Z,94.70
2017-08-10T17:10:03.414Z,94.00
2017-08-10T17:12:30.923Z,94.20
2017-08-10T17:14:58.419Z,94.00
2017-08-10T17:17:25.946Z,94.10
2017-08-10T17:19:53.447Z,94.60
2017-08-10T17:22:21.731Z,95.00
2017-08-10T17:24:49.318Z,94.70
2017-08-10T17:27:16.843Z,95.10
2017-08-10T17:29:45.715Z,94.60
2017-08-10T17:32:13.231Z,94.40
2017-08-10T17:34:41.699Z,94.90
2017-08-10T17:37:09.219Z,95.00
2017-08-10T17:39:36.725Z,95.10
2017-08-10T17:42:04.257Z,95.10
2017-08-10T17:44:32.527Z,95.30
2017-08-10T17:47:00.796Z,94.70
2017-08-10T17:49:29.099Z,94.60
2017-08-10T17:51:56.658Z,94.60
2017-08-10T17:54:24.218Z,94.00
2017-08-10T17:56:51.783Z,93.60
2017-08-10T17:59:19.303Z,93.90
2017-08-10T18:01:47.572Z,94.20
2017-08-10T18:04:15.091Z,94.50
2017-08-10T18:06:44.267Z,94.40
2017-08-10T18:09:11.827Z,94.70
2017-08-10T18:11:39.808Z,94.70
2017-08-10T18:14:07.322Z,95.20
2017-08-10T18:16:35.590Z,94.90
2017-08-10T18:19:03.188Z,94.90
2017-08-10T18:21:30.798Z,94.90
2017-08-10T18:23:58.295Z,95.40
2017-08-10T18:26:26.278Z,95.50
2017-08-10T18:28:53.783Z,94.60
2017-08-10T18:31:21.391Z,94.60
2017-08-10T18:33:48.895Z,94.60
2017-08-10T18:36:16.507Z,94.50
2017-08-10T18:38:44.076Z,93.80
2017-08-10T18:41:11.595Z,93.70
2017-08-10T18:43:39.858Z,93.50
2017-08-10T18:46:07.379Z,93.80
2017-08-10T18:48:34.923Z,94.00
2017-08-10T18:51:02.466Z,94.00
2017-08-10T18:53:29.971Z,94.00
2017-08-10T18:55:57.470Z,93.60
2017-08-10T18:58:25.767Z,93.90
2017-08-10T19:00:53.275Z,93.90
2017-08-10T19:03:20.798Z,94.30
2017-08-10T19:05:48.300Z,94.50
2017-08-10T19:08:16.315Z,94.00
2017-08-10T19:10:43.826Z,93.20
2017-08-10T19:13:11.355Z,93.30
2017-08-10T19:15:38.882Z,93.40
2017-08-10T19:18:06.404Z,93.60
2017-08-10T19:20:34.214Z,93.70
2017-08-10T19:23:01.755Z,93.80
2017-08-10T19:25:30.030Z,94.80
2017-08-10T19:27:57.588Z,94.80
2017-08-10T19:30:26.375Z,94.90
2017-08-10T19:32:54.639Z,94.50
2017-08-10T19:35:22.155Z,94.50
2017-08-10T19:37:49.660Z,94.80
2017-08-10T19:40:18.062Z,93.70
2017-08-10T19:42:45.619Z,93.60
2017-08-10T19:45:13.183Z,93.90
2017-08-10T19:47:40.696Z,93.90
2017-08-10T19:50:08.300Z,94.10
2017-08-10T19:52:35.808Z,95.20
2017-08-10T19:55:03.326Z,95.10
2017-08-10T19:57:30.868Z,94.20
2017-08-10T19:59:59.303Z,94.80
2017-08-10T20:02:26.821Z,95.00
2017-08-10T20:04:54.323Z,94.70
2017-08-10T20:07:21.928Z,94.80
2017-08-10T20:09:49.438Z,94.20
2017-08-10T20:12:17.058Z,95.10
2017-08-10T20:14:45.480Z,94.10
2017-08-10T20:17:13.083Z,94.30
2017-08-10T20:19:40.587Z,94.50
2017-08-10T20:22:08.110Z,94.60
2017-08-10T20:24:35.635Z,94.30
2017-08-10T20:27:03.911Z,94.20
2017-08-10T20:29:32.211Z,94.30
2017-08-10T20:32:00.011Z,94.30
2017-08-10T20:34:27.541Z,94.50
2017-08-10T20:36:55.090Z,94.70
2017-08-10T20:39:22.650Z,94.80
2017-08-10T20:41:50.158Z,95.00
2017-08-10T20:44:17.687Z,95.00
2017-08-10T20:46:45.202Z,95.10
2017-08-10T20:49:13.535Z,95.30
2017-08-10T20:51:41.057Z,95.30
2017-08-10T20:54:08.623Z,95.40
2017-08-10T20:56:36.183Z,95.60
2017-08-10T20:59:03.691Z,95.10
2017-08-10T21:01:31.222Z,95.00
2017-08-10T21:03:58.727Z,95.20
2017-08-10T21:06:27.031Z,95.10
2017-08-10T21:08:54.590Z,95.10
2017-08-10T21:11:22.146Z,95.10
2017-08-10T21:13:49.660Z,95.20
2017-08-10T21:16:17.183Z,95.60
2017-08-10T21:18:44.687Z,95.80
2017-08-10T21:21:12.200Z,95.50
2017-08-10T21:23:39.748Z,95.30
2017-08-10T21:26:07.255Z,95.50
2017-08-10T21:28:34.774Z,95.60
2017-08-10T21:31:02.530Z,95.30
2017-08-10T21:33:30.055Z,95.50
2017-08-10T21:35:58.840Z,95.60
2017-08-10T21:38:27.134Z,95.80
2017-08-10T21:40:54.731Z,95.80
2017-08-10T21:43:22.259Z,95.60
2017-08-10T21:45:49.805Z,95.40
2017-08-10T21:48:17.800Z,95.30
2017-08-10T21:50:45.302Z,95.00
2017-08-10T21:53:12.807Z,95.00
2017-08-10T21:55:40.872Z,95.10
2017-08-10T21:58:08.431Z,95.30
2017-08-10T22:00:35.951Z,95.30
2017-08-10T22:03:03.446Z,95.30
2017-08-10T22:05:31.007Z,95.50
2017-08-10T22:07:59.278Z,95.80
2017-08-10T22:10:26.802Z,95.80
2017-08-10T22:12:54.307Z,95.70
2017-08-10T22:15:21.830Z,95.30
2017-08-10T22:17:50.094Z,95.20
2017-08-10T22:20:18.419Z,95.20
2017-08-10T22:22:45.967Z,95.30
2017-08-10T22:25:13.475Z,95.60
2017-08-10T22:27:40.991Z,95.50
2017-08-10T22:30:09.011Z,95.60
2017-08-10T22:32:36.531Z,95.50
2017-08-10T22:35:04.036Z,95.40
2017-08-10T22:37:32.324Z,95.60
2017-08-10T22:40:00.595Z,95.60
2017-08-10T22:42:28.883Z,95.70
2017-08-10T22:44:56.387Z,95.60
2017-08-10T22:47:23.886Z,95.50
2017-08-10T22:49:52.167Z,95.80
2017-08-10T22:52:20.438Z,95.90
2017-08-10T22:54:48.727Z,96.20
2017-08-10T22:57:16.232Z,96.20
2017-08-10T22:59:43.746Z,96.10
2017-08-10T23:02:11.814Z,96.30
2017-08-10T23:04:39.387Z,96.30
2017-08-10T23:07:07.419Z,96.30
2017-08-10T23:09:34.944Z,96.20
2017-08-10T23:12:02.507Z,96.10
2017-08-10T23:14:30.131Z,96.10
2017-08-10T23:16:57.644Z,96.40
2017-08-10T23:19:25.243Z,96.90
2017-08-10T23:21:53.643Z,96.50
2017-08-10T23:24:21.152Z,96.30
2017-08-10T23:26:48.739Z,96.30
2017-08-10T23:29:16.507Z,96.60
2017-08-10T23:31:44.071Z,96.10
2017-08-10T23:34:11.575Z,95.70
2017-08-10T23:36:39.100Z,96.00
2017-08-10T23:39:07.050Z,96.60
2017-08-10T23:41:34.567Z,96.30
2017-08-10T23:44:02.076Z,96.00
2017-08-10T23:46:29.590Z,95.60
2017-08-10T23:48:57.186Z,95.90
2017-08-10T23:51:24.698Z,95.80
2017-08-10T23:53:52.303Z,96.40
2017-08-10T23:56:20.678Z,96.70
2017-08-10T23:58:48.188Z,96.60
